Сообщение об ошибке

  • Warning: ini_set(): Headers already sent. You cannot change the session module's ini settings at this time in drupal_environment_initialize() (line 699 of /home/a/auditpro/2.auditpro.beget.tech/public_html/st/includes/bootstrap.inc).
  • Warning: ini_set(): Headers already sent. You cannot change the session module's ini settings at this time in drupal_environment_initialize() (line 700 of /home/a/auditpro/2.auditpro.beget.tech/public_html/st/includes/bootstrap.inc).
  • Warning: ini_set(): Headers already sent. You cannot change the session module's ini settings at this time in drupal_environment_initialize() (line 701 of /home/a/auditpro/2.auditpro.beget.tech/public_html/st/includes/bootstrap.inc).
  • Warning: ini_set(): Headers already sent. You cannot change the session module's ini settings at this time in drupal_environment_initialize() (line 704 of /home/a/auditpro/2.auditpro.beget.tech/public_html/st/includes/bootstrap.inc).
  • Warning: ini_set(): Headers already sent. You cannot change the session module's ini settings at this time in drupal_environment_initialize() (line 706 of /home/a/auditpro/2.auditpro.beget.tech/public_html/st/includes/bootstrap.inc).
  • Warning: ini_set(): Headers already sent. You cannot change the session module's ini settings at this time in include_once() (line 290 of /home/a/auditpro/2.auditpro.beget.tech/public_html/st/sites/default/settings.php).
  • Warning: ini_set(): Headers already sent. You cannot change the session module's ini settings at this time in include_once() (line 291 of /home/a/auditpro/2.auditpro.beget.tech/public_html/st/sites/default/settings.php).
  • Warning: ini_set(): Headers already sent. You cannot change the session module's ini settings at this time in include_once() (line 299 of /home/a/auditpro/2.auditpro.beget.tech/public_html/st/sites/default/settings.php).
  • Warning: ini_set(): Headers already sent. You cannot change the session module's ini settings at this time in include_once() (line 306 of /home/a/auditpro/2.auditpro.beget.tech/public_html/st/sites/default/settings.php).
  • Warning: ini_set(): Headers already sent. You cannot change the session module's ini settings at this time in drupal_settings_initialize() (line 826 of /home/a/auditpro/2.auditpro.beget.tech/public_html/st/includes/bootstrap.inc).
  • Warning: ini_set(): Headers already sent. You cannot change the session module's ini settings at this time in drupal_settings_initialize() (line 835 of /home/a/auditpro/2.auditpro.beget.tech/public_html/st/includes/bootstrap.inc).
  • Warning: session_name(): Cannot change session name when headers already sent in drupal_settings_initialize() (line 838 of /home/a/auditpro/2.auditpro.beget.tech/public_html/st/includes/bootstrap.inc).

Черемисиново

СКИДКИ НА СМАРТФОНЫ!

Карта отелей и гостиниц, располагающихся рядом с аэропортом Черемисиново :

Черемисиново Курская область 51° 53' 39.7212" N, 37° 14' 43.98" E
Код аэродрома ИКАО
ZA2F
Код аэродрома RU
ЗА2Ф
Координаты
N51.89437° E037.24555°
Превышение над уровнем моря
196
Основная полоса
06/24
Курс магнитный
058,6/238,6
Длина основной ВПП
450
Ширина основной ВПП
18
Покрытие основной ВПП
Твёрдое (асфальт)
Освещение ВПП
Нет
Тип: 
Аэродром
Класс аэродрома: 
Принадлежность: 
ГА
Статус: 
Недействующий
Сайт: 
E-mail аэродрома: 
Страна: 
Россия
Регион: 
Курская область
Город: 
Дополнительная информация: 
Площадка АХР.

Скидки на навигаторы!

Найти трансфер

С помощью этой формы Вы можете найти трансфер из аэропорта Черемисиново в город, аэропорт или вокзал:

Погода в аэропортах:

Авиационная погода в аэропорту Сокол

Регион: 
Погода METAR: 
UHMM 302000Z 01006G11MPS 6000 -SN DRSN BKN028 M12/M18 Q0987 R10/85//50 RMK QFE726 R28/04006MPS
Время наблюдения
2023-01-30T20:00:00Z
Температура C
-12.0
Точка росы
-18.0
Направление ветра
10
Скорость ветра (узлы)
12
Метео видимость
3.73
Облачность
BKN
Нижняя граница облачности (футы)
2800
Явления погоды
-SN DRSN
Условия полета
MVFR
Аэропорт подробнее: 
BKN – значительная (рассеянная, разорванная) облачность;
-SN – слабый снег, DRSN – снежный позёмок;;

Авиационная погода в Магнитогорске

Погода METAR: 
USCM 301930Z 18006MPS 4900 BR NSC M12/M15 Q1018 R18/090060 TEMPO 0300 FZFG VV003 RMK QFE726
Время наблюдения
2023-01-30T19:30:00Z
Температура C
-12.0
Точка росы
-15.0
Направление ветра
180
Скорость ветра (узлы)
12
Метео видимость
3.04
Облачность
CLR
Нижняя граница облачности (футы)
Явления погоды
BR
Условия полета
MVFR
Аэропорт подробнее: 
CLR — нет облаков ниже 3000 м
BR – дымка (видимость от 1 до 9 км);

Авиационная погода в Самсуне

Регион: 
Погода METAR: 
LTFH 301950Z 00000KT 9999 -SHRA FEW019 BKN028 BKN080 05/05 Q1012 NOSIG
Время наблюдения
2023-01-30T19:50:00Z
Температура C
5.0
Точка росы
5.0
Направление ветра
0
Скорость ветра (узлы)
0
Метео видимость
6.21
Облачность
FEW
BKN
BKN
Нижняя граница облачности (футы)
1900
2800
8000
Явления погоды
-SHRA
Условия полета
MVFR
FEW – незначительная облачность; BKN – значительная (рассеянная, разорванная) облачность;
-SHRA - слабый ливневой дождь;

Авиационная погода в Архангельске

Регион: 
Погода METAR: 
ULAA 301930Z 16005G10MPS 100V230 5000 -SN BKN011 M03/M04 Q0981 R08/590533 NOSIG RMK QFE734/0979
Время наблюдения
2023-01-30T19:30:00Z
Температура C
-3.0
Точка росы
-4.0
Направление ветра
160
Скорость ветра (узлы)
10
Метео видимость
3.11
Облачность
BKN
Нижняя граница облачности (футы)
1100
Явления погоды
-SN
Условия полета
MVFR
Аэропорт подробнее: 
BKN – значительная (рассеянная, разорванная) облачность;
-SN – слабый снег;